createdAt,value
2022-08-19T00:02:11.064Z,76.19
2022-08-19T00:04:43.936Z,76.21
2022-08-19T00:07:16.804Z,76.17
2022-08-19T00:09:50.014Z,76.08
2022-08-19T00:12:23.163Z,76.16
2022-08-19T00:14:56.689Z,76.10
2022-08-19T00:17:29.971Z,76.06
2022-08-19T00:20:02.883Z,76.21
2022-08-19T00:22:36.174Z,76.26
2022-08-19T00:25:10.302Z,76.26
2022-08-19T00:27:43.635Z,76.30
2022-08-19T00:30:16.772Z,76.34
2022-08-19T00:32:49.956Z,76.14
2022-08-19T00:35:23.206Z,76.09
2022-08-19T00:37:56.110Z,76.29
2022-08-19T00:40:29.315Z,76.43
2022-08-19T00:43:02.327Z,76.57
2022-08-19T00:45:36.898Z,76.82
2022-08-19T00:48:14.764Z,77.26
2022-08-19T00:50:51.903Z,77.80
2022-08-19T00:53:24.213Z,78.57
2022-08-19T00:56:00.654Z,79.24
2022-08-19T00:58:35.969Z,79.70
2022-08-19T01:01:09.168Z,80.04
2022-08-19T01:03:58.026Z,80.42
2022-08-19T01:06:20.062Z,80.68
2022-08-19T01:08:52.989Z,80.84
2022-08-19T01:11:27.635Z,81.08
2022-08-19T01:14:01.438Z,81.45
2022-08-19T01:16:34.221Z,81.76
2022-08-19T01:19:11.591Z,81.96
2022-08-19T01:21:52.020Z,82.11
2022-08-19T01:24:24.983Z,82.28
2022-08-19T01:26:57.752Z,82.32
2022-08-19T01:29:30.706Z,82.29
2022-08-19T01:32:04.608Z,82.33
2022-08-19T01:34:37.748Z,82.34
2022-08-19T01:37:13.044Z,82.31
2022-08-19T01:39:46.911Z,82.40
2022-08-19T01:42:20.506Z,82.29
2022-08-19T01:44:55.085Z,82.17
2022-08-19T01:47:27.982Z,82.25
2022-08-19T01:50:02.096Z,82.22
2022-08-19T01:52:38.079Z,82.30
2022-08-19T01:55:15.547Z,82.25
2022-08-19T01:57:54.525Z,82.33
2022-08-19T02:00:30.816Z,82.35
2022-08-19T02:03:03.853Z,82.51
2022-08-19T02:05:37.072Z,82.64
2022-08-19T02:08:10.617Z,82.66
2022-08-19T02:10:46.153Z,82.80
2022-08-19T02:13:21.130Z,82.71
2022-08-19T02:15:55.113Z,82.40
2022-08-19T02:18:28.243Z,82.22
2022-08-19T02:21:02.780Z,82.20
2022-08-19T02:23:36.682Z,81.94
2022-08-19T02:26:09.569Z,81.72
2022-08-19T02:28:44.332Z,81.77
2022-08-19T02:31:21.479Z,81.90
2022-08-19T02:33:56.642Z,81.98
2022-08-19T02:36:30.267Z,82.10
2022-08-19T02:39:03.266Z,82.17
2022-08-19T02:41:36.466Z,82.17
2022-08-19T02:44:30.081Z,82.35
2022-08-19T02:46:46.054Z,82.60
2022-08-19T02:49:18.178Z,82.98
2022-08-19T02:51:51.548Z,83.14
2022-08-19T02:54:24.844Z,83.42
2022-08-19T02:56:57.649Z,83.58
2022-08-19T02:59:34.733Z,83.73
2022-08-19T03:02:07.672Z,83.67
2022-08-19T03:04:41.374Z,83.65
2022-08-19T03:07:16.403Z,83.51
2022-08-19T03:09:49.263Z,83.54
2022-08-19T03:12:22.409Z,83.60
2022-08-19T03:14:55.652Z,83.82
2022-08-19T03:17:28.660Z,83.84
2022-08-19T03:20:01.585Z,83.82
2022-08-19T03:22:35.490Z,83.78
2022-08-19T03:25:08.781Z,83.84
2022-08-19T03:27:41.862Z,83.52
2022-08-19T03:30:15.736Z,83.40
2022-08-19T03:32:51.430Z,83.29
2022-08-19T03:35:24.795Z,84.54
2022-08-19T03:37:57.964Z,85.36
2022-08-19T03:40:31.950Z,85.22
2022-08-19T03:43:04.876Z,84.99
2022-08-19T03:45:38.333Z,84.58
2022-08-19T03:48:11.346Z,84.13
2022-08-19T03:50:44.993Z,83.83
2022-08-19T03:53:17.930Z,83.43
2022-08-19T03:55:50.744Z,83.36
2022-08-19T03:58:24.911Z,83.31
2022-08-19T04:00:58.232Z,83.22
2022-08-19T04:03:31.065Z,82.80
2022-08-19T04:06:26.693Z,82.39
2022-08-19T04:09:01.874Z,81.87
2022-08-19T04:11:44.746Z,80.95
2022-08-19T04:14:21.894Z,80.16
2022-08-19T04:16:55.271Z,79.84
2022-08-19T04:19:28.849Z,79.96
2022-08-19T04:22:02.070Z,80.08
2022-08-19T04:24:36.726Z,79.54
2022-08-19T04:27:09.644Z,79.33
2022-08-19T04:29:42.795Z,79.36
2022-08-19T04:32:17.741Z,78.83
2022-08-19T04:35:02.731Z,78.97
2022-08-19T04:37:25.958Z,78.97
2022-08-19T04:40:18.170Z,78.72
2022-08-19T04:42:51.092Z,78.69
2022-08-19T04:45:24.302Z,78.54
2022-08-19T04:48:26.268Z,78.41
2022-08-19T04:50:34.245Z,78.40
2022-08-19T04:53:08.359Z,78.33
2022-08-19T04:55:43.764Z,78.28
2022-08-19T04:58:18.099Z,78.09
2022-08-19T05:00:51.056Z,77.84
2022-08-19T05:03:27.615Z,77.72
2022-08-19T05:05:59.773Z,77.35
2022-08-19T05:08:38.852Z,77.05
2022-08-19T05:11:19.545Z,76.73
2022-08-19T05:13:54.166Z,76.73
2022-08-19T05:16:29.185Z,76.70
2022-08-19T05:19:19.988Z,76.47
2022-08-19T05:22:10.704Z,76.10
2022-08-19T05:25:02.484Z,76.25
2022-08-19T05:27:18.658Z,76.03
2022-08-19T05:29:53.282Z,75.92
2022-08-19T05:32:26.243Z,75.93
2022-08-19T05:34:59.123Z,75.74
2022-08-19T05:37:31.937Z,75.85
2022-08-19T05:40:06.005Z,75.85
2022-08-19T05:42:39.392Z,75.39
2022-08-19T05:45:13.179Z,75.30
2022-08-19T05:47:46.328Z,74.96
2022-08-19T05:50:19.181Z,74.88
2022-08-19T05:52:52.198Z,74.64
2022-08-19T05:55:25.239Z,74.48
2022-08-19T05:57:58.553Z,74.79
2022-08-19T06:00:32.566Z,74.72
2022-08-19T06:03:11.711Z,74.60
2022-08-19T06:05:46.254Z,74.69
2022-08-19T06:08:19.050Z,74.96
2022-08-19T06:10:51.968Z,75.12
2022-08-19T06:13:27.043Z,75.20
2022-08-19T06:16:01.566Z,75.05
2022-08-19T06:18:34.778Z,75.00
2022-08-19T06:21:07.765Z,75.14
2022-08-19T06:23:41.736Z,75.21
2022-08-19T06:26:19.706Z,75.44
2022-08-19T06:28:52.990Z,75.50
2022-08-19T06:31:29.470Z,75.75
2022-08-19T06:34:06.525Z,75.92
2022-08-19T06:36:44.018Z,75.61
2022-08-19T06:39:21.141Z,74.46
2022-08-19T06:41:59.004Z,73.71
2022-08-19T06:44:43.015Z,73.51
2022-08-19T06:47:23.059Z,73.00
2022-08-19T06:49:49.820Z,72.67
2022-08-19T06:52:24.151Z,72.59
2022-08-19T06:54:59.769Z,72.54
2022-08-19T06:57:34.138Z,72.09
2022-08-19T07:00:13.041Z,71.84
2022-08-19T07:02:50.739Z,71.89
2022-08-19T07:05:20.948Z,72.12
2022-08-19T07:07:54.591Z,72.11
2022-08-19T07:10:29.188Z,72.12
2022-08-19T07:13:02.351Z,71.82
2022-08-19T07:15:35.333Z,71.90
2022-08-19T07:18:11.612Z,71.52
2022-08-19T07:20:44.409Z,71.28
2022-08-19T07:23:18.135Z,71.02
2022-08-19T07:25:52.978Z,70.99
2022-08-19T07:28:25.951Z,70.87
2022-08-19T07:31:02.109Z,70.84
2022-08-19T07:33:37.360Z,70.97
2022-08-19T07:36:15.613Z,70.69
2022-08-19T07:38:52.092Z,70.11
2022-08-19T07:41:27.607Z,69.65
2022-08-19T07:44:05.035Z,69.15
2022-08-19T07:46:41.010Z,68.88
2022-08-19T07:49:16.612Z,68.75
2022-08-19T07:52:03.538Z,68.75
2022-08-19T07:54:39.312Z,68.71
2022-08-19T07:57:12.365Z,68.77
2022-08-19T07:59:45.290Z,68.55
2022-08-19T08:02:18.584Z,68.28
2022-08-19T08:05:09.175Z,68.38
2022-08-19T08:08:01.392Z,68.14
2022-08-19T08:10:34.534Z,68.22
2022-08-19T08:13:09.354Z,68.52
2022-08-19T08:15:43.761Z,67.99
2022-08-19T08:18:16.902Z,68.02
2022-08-19T08:20:50.598Z,67.46
2022-08-19T08:23:30.864Z,67.47
2022-08-19T08:26:06.012Z,67.49
2022-08-19T08:28:40.195Z,67.46
2022-08-19T08:31:14.007Z,66.82
2022-08-19T08:33:47.260Z,66.36
2022-08-19T08:36:20.193Z,65.84
2022-08-19T08:41:34.453Z,65.46
2022-08-19T08:44:08.614Z,65.05
2022-08-19T08:46:59.855Z,65.00
2022-08-19T08:49:40.049Z,64.43
2022-08-19T08:52:31.978Z,64.09
2022-08-19T08:55:10.126Z,63.66
2022-08-19T08:57:57.372Z,63.22
2022-08-19T09:00:34.898Z,63.15
2022-08-19T09:03:24.372Z,63.14
2022-08-19T09:06:11.898Z,63.26
2022-08-19T09:09:12.113Z,62.30
2022-08-19T09:12:31.803Z,61.92
2022-08-19T09:15:11.155Z,61.47
2022-08-19T09:17:44.297Z,61.55
2022-08-19T09:20:26.201Z,61.25
2022-08-19T09:22:59.751Z,61.07
2022-08-19T09:25:34.354Z,60.98
2022-08-19T09:28:20.331Z,60.80
2022-08-19T09:30:45.328Z,60.79
2022-08-19T09:33:18.675Z,60.57
2022-08-19T09:35:53.617Z,60.51
2022-08-19T09:38:26.274Z,60.61
2022-08-19T09:40:59.364Z,60.56
2022-08-19T09:43:33.879Z,60.06
2022-08-19T09:46:10.300Z,59.55
2022-08-19T09:48:43.776Z,59.04
2022-08-19T09:51:21.388Z,58.57
2022-08-19T09:53:55.273Z,59.25
2022-08-19T09:56:28.485Z,59.57
2022-08-19T09:59:03.543Z,60.14
2022-08-19T10:01:36.643Z,59.44
2022-08-19T10:04:14.684Z,58.63
2022-08-19T10:06:48.780Z,57.41
2022-08-19T10:09:33.989Z,57.25
2022-08-19T10:11:58.594Z,57.23
2022-08-19T10:14:32.434Z,56.67
2022-08-19T10:17:19.210Z,56.87
2022-08-19T10:19:41.726Z,57.66
2022-08-19T10:22:17.359Z,57.73
2022-08-19T10:24:50.801Z,57.90
2022-08-19T10:27:24.031Z,58.13
2022-08-19T10:29:58.785Z,58.34
2022-08-19T10:32:34.467Z,58.40
2022-08-19T10:35:09.557Z,58.08
2022-08-19T10:37:56.852Z,57.99
2022-08-19T10:40:17.272Z,57.85
2022-08-19T10:42:50.872Z,57.80
2022-08-19T10:45:26.857Z,56.27
2022-08-19T10:48:01.323Z,55.89
2022-08-19T10:50:53.549Z,55.87
2022-08-19T10:53:26.858Z,55.68
2022-08-19T10:56:17.706Z,55.62
2022-08-19T10:58:50.940Z,55.76
2022-08-19T11:01:23.959Z,55.22
2022-08-19T11:03:58.561Z,55.14
2022-08-19T11:06:33.340Z,54.33
2022-08-19T11:09:07.178Z,53.07
2022-08-19T11:11:42.094Z,52.50
2022-08-19T11:14:19.846Z,51.53
2022-08-19T11:16:55.946Z,48.29
2022-08-19T11:19:28.876Z,45.61
2022-08-19T11:22:04.081Z,44.46
2022-08-19T11:24:37.912Z,44.21
2022-08-19T11:27:12.417Z,44.49
2022-08-19T11:29:45.513Z,43.77
2022-08-19T11:32:18.783Z,42.95
2022-08-19T11:34:51.666Z,43.19
2022-08-19T11:37:25.022Z,43.06
2022-08-19T11:39:58.415Z,43.53
2022-08-19T11:42:49.191Z,43.70
2022-08-19T11:45:22.190Z,44.02
2022-08-19T11:47:55.752Z,44.16
2022-08-19T11:50:28.810Z,44.11
2022-08-19T11:53:01.986Z,44.30
2022-08-19T11:55:34.855Z,44.30
2022-08-19T11:58:18.755Z,44.20
2022-08-19T12:00:46.462Z,43.89
2022-08-19T12:03:20.911Z,43.66
2022-08-19T12:05:53.033Z,43.66
2022-08-19T12:08:26.022Z,43.70
2022-08-19T12:11:01.505Z,43.71
2022-08-19T12:13:34.865Z,43.52
2022-08-19T12:16:17.970Z,43.45
2022-08-19T12:18:52.265Z,43.16
2022-08-19T12:21:30.317Z,43.57
2022-08-19T12:24:06.707Z,43.95
2022-08-19T12:26:53.229Z,43.67
2022-08-19T12:29:18.444Z,42.66
2022-08-19T12:31:51.538Z,43.01
2022-08-19T12:34:26.026Z,43.27
2022-08-19T12:37:01.107Z,42.64
2022-08-19T12:39:39.840Z,42.68
2022-08-19T12:42:15.411Z,43.09
2022-08-19T12:44:48.783Z,43.44
2022-08-19T12:47:22.417Z,43.87
2022-08-19T12:49:56.227Z,43.82
2022-08-19T12:52:29.790Z,43.57
2022-08-19T12:55:02.848Z,42.84
2022-08-19T12:57:36.872Z,42.77
2022-08-19T13:00:17.964Z,42.58
2022-08-19T13:02:53.665Z,42.58
2022-08-19T13:05:30.458Z,42.79
2022-08-19T13:08:04.129Z,43.03
2022-08-19T13:10:38.342Z,43.42
2022-08-19T13:13:12.580Z,43.00
2022-08-19T13:15:46.602Z,42.39
2022-08-19T13:18:19.745Z,42.32
2022-08-19T13:20:53.212Z,42.39
2022-08-19T13:23:26.494Z,42.42
2022-08-19T13:26:06.500Z,42.24
2022-08-19T13:28:59.623Z,42.33
2022-08-19T13:31:54.148Z,42.12
2022-08-19T13:34:35.116Z,41.86
2022-08-19T13:37:08.842Z,41.52
2022-08-19T13:39:41.119Z,41.25
2022-08-19T13:42:15.277Z,40.84
2022-08-19T13:44:48.987Z,40.65
2022-08-19T13:47:22.257Z,40.46
2022-08-19T13:49:55.245Z,39.87
2022-08-19T13:52:28.285Z,39.68
2022-08-19T13:55:01.347Z,39.36
2022-08-19T13:57:34.588Z,39.43
2022-08-19T14:00:14.189Z,39.28
2022-08-19T14:02:49.178Z,39.39
2022-08-19T14:05:23.115Z,39.53
2022-08-19T14:07:57.032Z,38.84
2022-08-19T14:10:32.792Z,38.59
2022-08-19T14:13:06.731Z,38.25
2022-08-19T14:15:41.394Z,38.65
2022-08-19T14:18:14.660Z,42.29
2022-08-19T14:20:48.211Z,44.53
2022-08-19T14:23:21.403Z,45.86
2022-08-19T14:25:55.846Z,47.21
2022-08-19T14:28:29.653Z,48.17
2022-08-19T14:31:02.625Z,48.42
2022-08-19T14:33:36.188Z,48.92
2022-08-19T14:36:09.345Z,49.30
2022-08-19T14:38:44.228Z,49.57
2022-08-19T14:41:24.196Z,49.54
2022-08-19T14:43:57.584Z,49.36
2022-08-19T14:46:31.967Z,49.64
2022-08-19T14:49:09.368Z,49.95
2022-08-19T14:51:40.972Z,50.25
2022-08-19T14:54:14.231Z,50.56
2022-08-19T14:56:47.249Z,49.99
2022-08-19T14:59:20.131Z,49.65
2022-08-19T15:01:53.748Z,49.05
2022-08-19T15:04:31.977Z,49.16
2022-08-19T15:07:04.304Z,49.14
2022-08-19T15:09:37.738Z,48.85
2022-08-19T15:12:11.559Z,48.49
2022-08-19T15:14:47.933Z,48.63
2022-08-19T15:17:25.747Z,48.21
2022-08-19T15:19:57.611Z,47.68
2022-08-19T15:22:30.839Z,47.66
2022-08-19T15:25:04.643Z,48.08
2022-08-19T15:27:37.853Z,48.15
2022-08-19T15:30:12.448Z,48.14
2022-08-19T15:32:48.934Z,48.27
2022-08-19T15:35:20.935Z,48.21
2022-08-19T15:37:54.827Z,47.87
2022-08-19T15:40:29.267Z,48.21
2022-08-19T15:43:02.480Z,48.44
2022-08-19T15:45:35.931Z,48.96
2022-08-19T15:48:09.224Z,49.26
2022-08-19T15:50:43.491Z,49.47
2022-08-19T15:53:16.416Z,49.43
2022-08-19T15:55:50.977Z,49.61
2022-08-19T15:58:41.885Z,49.81
2022-08-19T16:01:35.439Z,50.27
2022-08-19T16:04:24.629Z,51.18
2022-08-19T16:07:00.452Z,51.82
2022-08-19T16:09:35.766Z,52.40
2022-08-19T16:12:10.749Z,53.08
2022-08-19T16:14:44.515Z,53.46
2022-08-19T16:17:17.875Z,53.74
2022-08-19T16:19:52.744Z,53.94
2022-08-19T16:22:32.617Z,54.07
2022-08-19T16:25:07.628Z,54.13
2022-08-19T16:27:41.516Z,54.47
2022-08-19T16:30:15.936Z,54.79
2022-08-19T16:32:49.051Z,55.10
2022-08-19T16:35:22.521Z,55.66
2022-08-19T16:37:55.741Z,56.22
2022-08-19T16:40:28.877Z,56.42
2022-08-19T16:43:03.198Z,56.59
2022-08-19T16:45:36.100Z,56.74
2022-08-19T16:48:09.101Z,57.06
2022-08-19T16:50:49.508Z,57.52
2022-08-19T16:53:23.067Z,58.07
2022-08-19T16:55:57.699Z,58.66
2022-08-19T16:58:33.725Z,59.30
2022-08-19T17:01:10.297Z,59.72
2022-08-19T17:03:43.777Z,60.23
2022-08-19T17:06:21.643Z,60.65
2022-08-19T17:09:00.825Z,61.04
2022-08-19T17:11:34.502Z,61.50
2022-08-19T17:14:08.770Z,61.86
2022-08-19T17:16:43.731Z,62.07
2022-08-19T17:19:17.537Z,62.26
2022-08-19T17:21:50.649Z,62.52
2022-08-19T17:24:23.761Z,62.74
2022-08-19T17:26:56.625Z,63.06
2022-08-19T17:29:29.723Z,63.33
2022-08-19T17:32:02.936Z,63.59
2022-08-19T17:34:35.891Z,63.82
2022-08-19T17:37:09.092Z,64.03
2022-08-19T17:39:42.621Z,64.31
2022-08-19T17:42:15.696Z,64.61
2022-08-19T17:44:50.879Z,64.72
2022-08-19T17:47:23.302Z,64.77
2022-08-19T17:49:57.252Z,64.68
2022-08-19T17:52:30.285Z,64.50
2022-08-19T17:55:03.505Z,64.44
2022-08-19T17:57:36.632Z,64.50
2022-08-19T18:00:15.465Z,64.73
2022-08-19T18:03:00.532Z,65.07
2022-08-19T18:05:38.184Z,65.45
2022-08-19T18:08:12.932Z,65.85
2022-08-19T18:10:45.636Z,66.27
2022-08-19T18:13:18.864Z,66.64
2022-08-19T18:15:52.337Z,67.09
2022-08-19T18:18:25.710Z,67.30
2022-08-19T18:20:59.319Z,67.32
2022-08-19T18:23:44.952Z,67.29
2022-08-19T18:26:09.172Z,67.34
2022-08-19T18:28:49.447Z,67.37
2022-08-19T18:31:19.499Z,67.54
2022-08-19T18:33:54.897Z,67.68
2022-08-19T18:36:52.540Z,67.78
2022-08-19T18:39:23.751Z,67.97
2022-08-19T18:42:15.577Z,68.23
2022-08-19T18:45:06.264Z,68.47
2022-08-19T18:47:57.134Z,68.49
2022-08-19T18:50:29.939Z,68.44
2022-08-19T18:53:02.855Z,68.61
2022-08-19T18:55:35.811Z,68.98
2022-08-19T18:58:09.211Z,69.13
2022-08-19T19:00:42.182Z,69.37
2022-08-19T19:03:15.109Z,69.49
2022-08-19T19:05:49.247Z,69.59
2022-08-19T19:08:27.178Z,69.58
2022-08-19T19:10:59.850Z,69.62
2022-08-19T19:13:35.562Z,69.41
2022-08-19T19:16:11.363Z,68.99
2022-08-19T19:18:44.985Z,69.12
2022-08-19T19:21:17.585Z,69.29
2022-08-19T19:23:50.646Z,69.56
2022-08-19T19:26:23.701Z,69.88
2022-08-19T19:28:57.883Z,70.44
2022-08-19T19:31:31.582Z,71.00
2022-08-19T19:34:04.958Z,71.56
2022-08-19T19:36:39.739Z,71.88
2022-08-19T19:39:12.574Z,72.25
2022-08-19T19:41:47.629Z,72.59
2022-08-19T19:44:29.927Z,72.85
2022-08-19T19:46:55.961Z,73.56
2022-08-19T19:49:30.768Z,74.41
2022-08-19T19:52:03.708Z,76.12
2022-08-19T19:54:38.070Z,77.28
2022-08-19T19:57:11.925Z,78.53
2022-08-19T19:59:51.184Z,79.69
2022-08-19T20:02:19.986Z,80.75
2022-08-19T20:04:52.984Z,81.37
2022-08-19T20:07:27.866Z,82.24
2022-08-19T20:10:01.373Z,82.71
2022-08-19T20:12:34.885Z,83.27
2022-08-19T20:15:09.258Z,83.81
2022-08-19T20:17:43.339Z,84.26
2022-08-19T20:20:19.527Z,84.35
2022-08-19T20:22:52.454Z,84.80
2022-08-19T20:25:25.839Z,85.13
2022-08-19T20:28:00.252Z,85.21
2022-08-19T20:30:34.503Z,85.30
2022-08-19T20:33:07.589Z,85.14
2022-08-19T20:35:40.721Z,85.14
2022-08-19T20:38:13.969Z,85.80
2022-08-19T20:40:47.153Z,85.98
2022-08-19T20:43:20.017Z,86.06
2022-08-19T20:45:53.161Z,86.61
2022-08-19T20:48:26.275Z,86.61
2022-08-19T20:50:59.811Z,86.93
2022-08-19T20:53:33.072Z,87.20
2022-08-19T20:56:07.161Z,87.16
2022-08-19T20:58:40.850Z,87.56
2022-08-19T21:01:14.149Z,87.66
2022-08-19T21:03:46.973Z,87.66
2022-08-19T21:06:19.252Z,87.88
2022-08-19T21:08:54.631Z,88.27
2022-08-19T21:11:26.774Z,88.54
2022-08-19T21:13:59.356Z,88.72
2022-08-19T21:16:33.352Z,88.83
2022-08-19T21:19:05.220Z,88.84
2022-08-19T21:21:37.293Z,88.87
2022-08-19T21:24:09.147Z,88.89
2022-08-19T21:26:41.009Z,88.94
2022-08-19T21:29:12.593Z,88.92
2022-08-19T21:31:44.597Z,88.97
2022-08-19T21:34:16.348Z,88.94
2022-08-19T21:36:48.452Z,89.07
2022-08-19T21:39:20.377Z,89.12
2022-08-19T21:41:52.657Z,89.20
2022-08-19T21:44:24.413Z,89.30
2022-08-19T21:46:57.085Z,89.50
2022-08-19T21:49:29.080Z,89.51
2022-08-19T21:52:02.193Z,89.50
2022-08-19T21:54:37.941Z,89.60
2022-08-19T21:57:10.587Z,89.46
2022-08-19T21:59:44.038Z,89.29
2022-08-19T22:02:21.291Z,89.10
2022-08-19T22:04:54.529Z,88.90
2022-08-19T22:07:26.346Z,88.80
2022-08-19T22:09:58.298Z,88.69
2022-08-19T22:12:32.847Z,88.40
2022-08-19T22:15:07.192Z,88.37
2022-08-19T22:17:40.486Z,88.35
2022-08-19T22:20:15.757Z,88.13
2022-08-19T22:22:50.467Z,87.82
2022-08-19T22:25:31.509Z,87.74
2022-08-19T22:28:01.720Z,87.64
2022-08-19T22:30:38.237Z,87.52
2022-08-19T22:33:12.606Z,87.37
2022-08-19T22:35:47.111Z,87.32
2022-08-19T22:38:19.572Z,87.23
2022-08-19T22:40:51.901Z,87.17
2022-08-19T22:43:26.355Z,87.32
2022-08-19T22:45:59.371Z,87.31
2022-08-19T22:48:32.901Z,87.20
2022-08-19T22:51:22.655Z,87.10
2022-08-19T22:53:57.395Z,87.08
2022-08-19T22:56:29.220Z,87.13
2022-08-19T22:59:02.937Z,87.13
2022-08-19T23:01:36.265Z,87.17
2022-08-19T23:04:08.023Z,87.16
2022-08-19T23:06:42.057Z,87.19
2022-08-19T23:09:16.985Z,87.21
2022-08-19T23:11:48.453Z,87.18
2022-08-19T23:14:20.335Z,87.22
2022-08-19T23:16:55.953Z,87.14
2022-08-19T23:19:26.968Z,86.99
2022-08-19T23:22:00.516Z,86.96
2022-08-19T23:24:32.363Z,86.76
2022-08-19T23:27:21.697Z,86.56
2022-08-19T23:30:13.098Z,86.58
2022-08-19T23:32:46.476Z,86.54
2022-08-19T23:35:18.251Z,86.40
2022-08-19T23:37:51.902Z,86.28
2022-08-19T23:40:24.016Z,86.15
2022-08-19T23:42:55.713Z,86.00
2022-08-19T23:45:28.075Z,85.87
2022-08-19T23:48:03.577Z,85.71
2022-08-19T23:50:36.237Z,85.62
2022-08-19T23:53:09.480Z,85.57
2022-08-19T23:55:44.858Z,85.43
2022-08-19T23:58:17.678Z,85.38
